Time;durP1;ratioP1;P1;durP2;ratioP2;P2;SDS_P1;SDS_P2;PMS_P1;PMS_P2;Temp;Humidity;BMP_temperature;BMP_pressure;BME280_temperature;BME280_humidity;BME280_pressure;Samples;Min_cycle;Max_cycle;Signal;HPM_P1;HPM_P2
2022/08/10 00:00:57;;;;;;;4.87;4.37;;;12.10;99.90;;;;;;8335727;28;20213;-68
2022/08/10 00:04:58;;;;;;;4.57;4.17;;;12.10;1.00;;;;;;8341907;28;20303;-68
2022/08/10 00:09:01;;;;;;;4.80;4.30;;;12.10;1.00;;;;;;8348870;28;20193;-68
2022/08/10 00:13:05;;;;;;;5.20;4.10;;;12.10;1.00;;;;;;8341445;28;20203;-67
2022/08/10 00:17:05;;;;;;;7.47;4.63;;;12.10;1.00;;;;;;8342486;28;20525;-68
2022/08/10 00:21:08;;;;;;;6.03;4.63;;;12.00;99.90;;;;;;8339576;28;20268;-68
2022/08/10 00:25:09;;;;;;;4.70;4.20;;;11.90;99.90;;;;;;8336552;28;20178;-68
2022/08/10 00:29:10;;;;;;;4.40;4.00;;;11.80;1.00;;;;;;8333313;28;20251;-68
2022/08/10 00:33:11;;;;;;;5.97;4.60;;;11.70;1.00;;;;;;8335245;28;20186;-68
2022/08/10 00:37:16;;;;;;;18.03;9.80;;;11.60;99.90;;;;;;8336573;28;20206;-68
2022/08/10 00:41:17;;;;;;;20.53;12.07;;;11.60;99.90;;;;;;8349097;28;20182;-68
2022/08/10 00:45:18;;;;;;;17.57;11.00;;;11.50;99.90;;;;;;8334138;28;20192;-69
2022/08/10 00:49:18;;;;;;;15.80;10.30;;;11.50;1.00;;;;;;8341500;28;20218;-71
2022/08/10 00:53:19;;;;;;;13.93;10.57;;;11.50;1.00;;;;;;8336777;28;20183;-68
2022/08/10 00:57:20;;;;;;;11.07;8.03;;;11.40;99.90;;;;;;8333884;28;20301;-68
2022/08/10 01:01:21;;;;;;;11.03;7.43;;;11.40;99.90;;;;;;8340183;28;20219;-68
2022/08/10 01:05:22;;;;;;;9.53;6.80;;;11.30;94.20;;;;;;8337553;28;20225;-68
2022/08/10 01:09:41;;;;;;;11.40;8.23;;;11.30;1.00;;;;;;8341624;28;20202;-68
2022/08/10 01:14:11;;;;;;;23.50;12.70;;;11.20;99.90;;;;;;8335206;28;20210;-68
2022/08/10 01:18:33;;;;;;;23.27;13.50;;;11.10;99.90;;;;;;8331084;28;20210;-68
2022/08/10 01:23:21;;;;;;;22.77;15.00;;;10.90;47.20;;;;;;8346992;28;20191;-68
2022/08/10 01:27:24;;;;;;;18.80;12.17;;;10.90;1.00;;;;;;8333667;28;20194;-68
2022/08/10 01:31:31;;;;;;;16.80;10.20;;;10.80;1.00;;;;;;8332023;28;20492;-68
2022/08/10 01:35:54;;;;;;;22.20;12.70;;;10.80;95.50;;;;;;8349084;28;20209;-67
2022/08/10 01:39:59;;;;;;;20.17;12.33;;;10.90;99.90;;;;;;8336047;28;21139;-67
2022/08/10 01:44:07;;;;;;;18.80;11.40;;;10.80;99.90;;;;;;8340201;28;20174;-67
2022/08/10 01:48:27;;;;;;;26.83;14.37;;;10.80;1.00;;;;;;8353572;28;20179;-67
2022/08/10 01:52:29;;;;;;;36.43;20.50;;;10.70;99.90;;;;;;8334363;28;20190;-67
2022/08/10 01:56:33;;;;;;;46.70;24.40;;;10.60;99.90;;;;;;8347010;28;20206;-67
2022/08/10 02:00:38;;;;;;;63.60;32.97;;;10.60;99.90;;;;;;8332898;28;20747;-67
2022/08/10 02:04:44;;;;;;;71.13;37.97;;;10.60;99.90;;;;;;8336869;28;20213;-67
2022/08/10 02:08:47;;;;;;;68.17;38.80;;;10.60;1.00;;;;;;8336101;28;20192;-67
2022/08/10 02:12:48;;;;;;;64.73;34.77;;;10.50;1.00;;;;;;8344101;28;20297;-67
2022/08/10 02:16:51;;;;;;;61.33;33.87;;;10.50;99.90;;;;;;8350861;28;20630;-67
2022/08/10 02:20:53;;;;;;;58.03;32.23;;;10.50;99.90;;;;;;8338927;28;20178;-67
2022/08/10 02:24:56;;;;;;;65.60;36.17;;;10.50;99.90;;;;;;8339384;28;20249;-67
2022/08/10 02:28:58;;;;;;;74.70;37.57;;;10.40;99.90;;;;;;8341407;28;20182;-67
2022/08/10 02:33:00;;;;;;;75.70;39.50;;;10.40;63.50;;;;;;8345568;28;20188;-67
2022/08/10 02:37:03;;;;;;;74.77;39.17;;;10.30;92.10;;;;;;8340179;28;20237;-67
2022/08/10 02:41:14;;;;;;;90.20;46.20;;;10.30;99.90;;;;;;8340985;28;20293;-67
2022/08/10 02:45:24;;;;;;;90.57;47.27;;;10.20;99.90;;;;;;8343494;28;20264;-67
2022/08/10 02:49:40;;;;;;;83.93;45.53;;;10.10;99.90;;;;;;8342281;28;20191;-67
2022/08/10 02:53:46;;;;;;;98.17;49.23;;;10.10;1.00;;;;;;8344844;28;20183;-75
2022/08/10 02:57:56;;;;;;;101.10;51.40;;;10.10;1.00;;;;;;8339703;28;20285;-67
2022/08/10 03:02:01;;;;;;;109.60;55.00;;;10.10;1.00;;;;;;8338008;28;20265;-67
2022/08/10 03:06:10;;;;;;;111.87;55.83;;;10.00;1.00;;;;;;8353607;28;20212;-67
2022/08/10 03:10:18;;;;;;;119.17;62.70;;;10.00;1.00;;;;;;8335929;28;20248;-67
2022/08/10 03:14:20;;;;;;;120.33;62.60;;;10.00;7.80;;;;;;8335685;28;20210;-66
2022/08/10 03:18:23;;;;;;;123.93;61.33;;;10.00;93.30;;;;;;8355859;28;20296;-69
2022/08/10 03:22:25;;;;;;;118.10;62.83;;;10.00;10.60;;;;;;8352543;28;20185;-68
2022/08/10 03:26:26;;;;;;;113.90;58.77;;;10.00;13.80;;;;;;8334536;28;20186;-68
2022/08/10 03:30:27;;;;;;;104.63;56.87;;;10.00;1.00;;;;;;8336877;28;20194;-68
2022/08/10 03:34:27;;;;;;;102.93;55.30;;;9.90;25.30;;;;;;8340091;28;20289;-68
2022/08/10 03:38:28;;;;;;;91.23;50.77;;;9.90;10.40;;;;;;8336304;28;20209;-68
2022/08/10 03:42:32;;;;;;;106.67;52.03;;;9.90;48.80;;;;;;8336925;28;20225;-67
2022/08/10 03:46:36;;;;;;;104.93;55.33;;;9.90;95.80;;;;;;8330813;28;20210;-68
2022/08/10 03:50:38;;;;;;;126.87;59.63;;;9.90;91.40;;;;;;8354226;28;20276;-68
2022/08/10 03:54:40;;;;;;;112.93;60.67;;;9.90;99.90;;;;;;8331843;28;20182;-69
2022/08/10 03:58:41;;;;;;;113.30;61.03;;;10.00;99.90;;;;;;8338752;28;20213;-68
2022/08/10 04:02:44;;;;;;;128.77;61.03;;;10.20;99.90;;;;;;8338486;28;20182;-68
2022/08/10 04:06:45;;;;;;;110.17;59.27;;;10.20;99.90;;;;;;8330600;28;20311;-68
2022/08/10 04:10:46;;;;;;;122.40;61.60;;;10.40;99.90;;;;;;8335840;28;20268;-68
2022/08/10 04:14:47;;;;;;;115.33;58.30;;;10.80;99.90;;;;;;8339082;28;20189;-68
2022/08/10 04:18:47;;;;;;;127.27;61.63;;;11.30;99.90;;;;;;8333706;28;20210;-68
2022/08/10 04:22:52;;;;;;;111.43;55.40;;;11.80;1.00;;;;;;8334180;28;20205;-68
2022/08/10 04:26:53;;;;;;;114.23;54.90;;;12.30;99.90;;;;;;8334212;28;20195;-68
2022/08/10 04:30:58;;;;;;;104.60;52.57;;;12.90;72.70;;;;;;8334431;28;20199;-68
2022/08/10 04:35:02;;;;;;;104.10;51.73;;;13.30;99.90;;;;;;8332542;28;20183;-68
2022/08/10 04:39:03;;;;;;;109.83;53.23;;;13.90;1.00;;;;;;8350844;28;20210;-68
2022/08/10 04:43:05;;;;;;;120.27;52.60;;;14.40;99.90;;;;;;8343898;28;20182;-68
2022/08/10 04:47:06;;;;;;;109.70;51.70;;;14.80;1.00;;;;;;8336368;28;20186;-68
2022/08/10 04:51:08;;;;;;;111.77;52.97;;;15.10;1.00;;;;;;8333526;28;20192;-68
2022/08/10 04:55:09;;;;;;;100.03;52.50;;;15.50;1.00;;;;;;8336469;28;20182;-68
2022/08/10 04:59:11;;;;;;;103.40;50.27;;;15.80;99.90;;;;;;8334748;28;20201;-68
2022/08/10 05:03:11;;;;;;;109.37;52.20;;;16.10;99.90;;;;;;8334030;28;20202;-68
2022/08/10 05:07:14;;;;;;;113.57;54.47;;;16.20;99.90;;;;;;8334392;28;20215;-68
2022/08/10 05:11:15;;;;;;;106.93;52.23;;;15.80;99.90;;;;;;8332125;28;20229;-72
2022/08/10 05:15:18;;;;;;;121.53;57.00;;;15.30;1.00;;;;;;8333275;28;20684;-68
2022/08/10 05:19:18;;;;;;;108.57;54.40;;;15.00;1.00;;;;;;8334799;28;20187;-68
2022/08/10 05:23:19;;;;;;;116.17;55.53;;;14.80;69.60;;;;;;8337503;28;20185;-68
2022/08/10 05:27:20;;;;;;;107.23;54.87;;;14.70;99.90;;;;;;8333433;28;20251;-68
2022/08/10 05:31:21;;;;;;;109.90;52.77;;;14.70;99.90;;;;;;8337476;28;20182;-68
2022/08/10 05:35:22;;;;;;;91.93;47.37;;;14.80;99.90;;;;;;8337735;28;20186;-68
2022/08/10 05:39:23;;;;;;;80.43;43.70;;;14.90;99.90;;;;;;8346966;28;20186;-68
2022/08/10 05:43:24;;;;;;;88.43;41.83;;;15.10;99.90;;;;;;8334674;28;20213;-68
2022/08/10 05:47:25;;;;;;;67.50;36.43;;;15.40;99.90;;;;;;8335619;28;20194;-68
2022/08/10 05:51:28;;;;;;;60.60;31.60;;;15.60;99.90;;;;;;8341706;28;20189;-69
2022/08/10 05:55:30;;;;;;;46.67;26.90;;;15.90;99.90;;;;;;8347443;28;20208;-69
2022/08/10 05:59:33;;;;;;;41.33;23.23;;;16.20;99.90;;;;;;8357828;28;20206;-69
2022/08/10 06:03:42;;;;;;;20.30;11.27;;;16.50;99.90;;;;;;8345600;28;20213;-68
2022/08/10 06:08:11;;;;;;;15.73;9.00;;;16.90;99.90;;;;;;8334965;28;20266;-68
2022/08/10 06:12:13;;;;;;;11.47;7.47;;;17.30;1.00;;;;;;8343971;28;20283;-69
2022/08/10 06:16:15;;;;;;;7.90;6.40;;;17.70;1.00;;;;;;8338631;28;20280;-69
2022/08/10 06:20:16;;;;;;;9.37;6.30;;;18.00;1.00;;;;;;8336938;28;20179;-68
2022/08/10 06:24:22;;;;;;;8.03;5.63;;;18.40;99.90;;;;;;8341876;28;20182;-68
2022/08/10 06:28:24;;;;;;;7.47;4.90;;;18.70;99.90;;;;;;8355634;28;20193;-68
2022/08/10 06:32:28;;;;;;;9.67;4.90;;;19.00;99.90;;;;;;8339352;28;20198;-68
2022/08/10 06:36:30;;;;;;;6.23;4.60;;;19.30;99.90;;;;;;8343167;28;20275;-68
2022/08/10 06:40:38;;;;;;;6.73;4.27;;;19.50;99.90;;;;;;8338789;28;20248;-68
2022/08/10 06:44:46;;;;;;;6.47;3.87;;;19.80;99.90;;;;;;8341367;28;20174;-67
2022/08/10 06:48:50;;;;;;;6.30;3.70;;;20.00;99.90;;;;;;8337162;28;20193;-69
2022/08/10 06:52:54;;;;;;;6.23;3.73;;;20.10;99.90;;;;;;8334513;28;20182;-70
2022/08/10 06:56:56;;;;;;;6.47;3.50;;;20.30;99.90;;;;;;8349028;28;20230;-65
2022/08/10 07:01:01;;;;;;;8.07;3.73;;;20.60;99.90;;;;;;8339395;28;20213;-66
2022/08/10 07:05:05;;;;;;;5.10;3.60;;;20.80;99.90;;;;;;8355278;28;20193;-65
2022/08/10 07:09:08;;;;;;;6.50;3.17;;;21.00;99.90;;;;;;8337282;28;20197;-69
2022/08/10 07:13:11;;;;;;;5.17;3.80;;;21.20;99.90;;;;;;8354115;28;20200;-68
2022/08/10 07:17:14;;;;;;;7.67;4.70;;;21.40;99.90;;;;;;8340729;28;20213;-66
2022/08/10 07:21:17;;;;;;;9.80;5.23;;;21.60;99.90;;;;;;8348648;28;20181;-66
2022/08/10 07:25:24;;;;;;;9.00;5.17;;;21.70;99.90;;;;;;8340861;28;20183;-68
2022/08/10 07:29:30;;;;;;;7.33;4.97;;;21.70;99.90;;;;;;8340845;28;20179;-66
2022/08/10 07:33:33;;;;;;;7.40;4.90;;;21.70;99.90;;;;;;8350720;28;20182;-67
2022/08/10 07:37:36;;;;;;;9.80;4.57;;;21.80;99.90;;;;;;8338362;28;20208;-66
2022/08/10 07:41:40;;;;;;;6.13;4.50;;;21.80;99.90;;;;;;8337772;28;20190;-66
2022/08/10 07:45:44;;;;;;;8.70;4.70;;;22.00;99.90;;;;;;8337208;28;20186;-67
2022/08/10 07:49:46;;;;;;;6.53;3.70;;;22.10;96.30;;;;;;8341583;28;20185;-66
2022/08/10 07:53:51;;;;;;;5.83;4.17;;;22.10;80.10;;;;;;8352173;28;20196;-66
2022/08/10 07:57:55;;;;;;;6.40;4.60;;;22.30;73.80;;;;;;8350809;28;20211;-66
2022/08/10 08:01:57;;;;;;;7.20;4.00;;;22.60;58.00;;;;;;8338143;28;20219;-66
2022/08/10 08:06:00;;;;;;;5.57;3.33;;;22.80;17.80;;;;;;8339257;28;20184;-66
2022/08/10 08:10:03;;;;;;;4.27;2.90;;;22.90;11.30;;;;;;8335259;28;20289;-66
2022/08/10 08:14:06;;;;;;;3.27;2.67;;;23.00;8.10;;;;;;8337608;28;20201;-68
2022/08/10 08:18:09;;;;;;;5.27;2.37;;;23.30;1.00;;;;;;8336821;28;20305;-65
2022/08/10 08:22:10;;;;;;;3.40;2.27;;;23.50;1.00;;;;;;8351301;28;20178;-66
2022/08/10 08:26:12;;;;;;;3.83;2.50;;;23.70;1.00;;;;;;8333806;28;20190;-67
2022/08/10 08:30:14;;;;;;;6.27;2.23;;;23.60;1.00;;;;;;8336973;28;20186;-66
2022/08/10 08:34:18;;;;;;;5.23;2.80;;;23.70;1.00;;;;;;8346872;28;20193;-66
2022/08/10 08:38:20;;;;;;;3.73;1.50;;;23.80;1.00;;;;;;8334378;28;20214;-65
2022/08/10 08:42:27;;;;;;;2.00;1.80;;;23.90;1.00;;;;;;8335538;28;20285;-64
2022/08/10 08:47:19;;;;;;;3.47;2.00;;;24.00;1.00;;;;;;8339115;28;20196;-66
2022/08/10 08:51:38;;;;;;;4.47;2.07;;;24.20;1.00;;;;;;8291882;28;20206;-66
2022/08/10 08:56:01;;;;;;;2.17;1.50;;;24.20;1.00;;;;;;8336417;28;20209;-65
2022/08/10 09:00:35;;;;;;;3.93;1.80;;;24.20;1.00;;;;;;8336656;28;20187;-67
2022/08/10 09:04:58;;;;;;;2.80;1.87;;;24.40;1.00;;;;;;8348708;28;20303;-64
2022/08/10 09:09:56;;;;;;;3.40;1.63;;;24.50;1.00;;;;;;8333659;28;20201;-66
2022/08/10 09:14:20;;;;;;;2.17;1.97;;;24.60;1.00;;;;;;8302486;28;20206;-66
2022/08/10 09:18:45;;;;;;;5.17;2.37;;;24.70;1.00;;;;;;8322014;28;20285;-66
2022/08/10 09:22:56;;;;;;;5.63;2.40;;;24.80;1.00;;;;;;8342975;28;20473;-66
2022/08/10 09:27:02;;;;;;;4.70;2.30;;;24.80;1.00;;;;;;8336608;28;20232;-66
2022/08/10 09:31:06;;;;;;;2.90;2.50;;;24.90;1.00;;;;;;8334302;28;20185;-65
2022/08/10 09:35:42;;;;;;;3.77;1.90;;;25.00;1.00;;;;;;8337351;28;20178;-66
2022/08/10 09:40:26;;;;;;;2.57;2.20;;;25.10;1.00;;;;;;8300097;28;20194;-67
2022/08/10 09:44:58;;;;;;;4.67;1.80;;;25.20;1.00;;;;;;8260346;28;20371;-67
2022/08/10 09:49:23;;;;;;;4.50;2.13;;;25.40;1.00;;;;;;8296246;28;20335;-65
2022/08/10 09:53:59;;;;;;;5.63;2.73;;;25.50;1.00;;;;;;8336982;28;20193;-66
2022/08/10 09:58:17;;;;;;;1.87;1.70;;;25.80;1.00;;;;;;8338766;28;20238;-64
2022/08/10 10:02:45;;;;;;;5.20;1.70;;;25.80;1.00;;;;;;8335668;28;20194;-65
2022/08/10 10:06:56;;;;;;;2.23;1.53;;;25.80;1.00;;;;;;8339252;28;20198;-66
2022/08/10 10:11:06;;;;;;;2.97;2.00;;;26.10;1.00;;;;;;8332320;28;20288;-66
2022/08/10 10:15:53;;;;;;;3.55;2.05;;;26.40;1.00;;;;;;8338689;28;20183;-71
2022/08/10 10:20:10;;;;;;;2.45;1.75;;;26.70;1.00;;;;;;8312538;28;20602;-68
2022/08/10 10:24:43;;;;;;;4.45;1.92;;;27.00;1.00;;;;;;8331214;28;20202;-67
2022/08/10 10:28:48;;;;;;;2.45;1.75;;;27.30;1.00;;;;;;8333133;28;20194;-66
2022/08/10 10:33:19;;;;;;;3.95;1.67;;;27.60;1.00;;;;;;8350290;28;20186;-66
2022/08/10 10:37:21;;;;;;;4.05;1.80;;;28.00;1.00;;;;;;8334781;28;20223;-66
2022/08/10 10:41:36;;;;;;;2.42;1.60;;;28.10;1.00;;;;;;8334814;28;20214;-66
2022/08/10 10:45:55;;;;;;;2.30;1.63;;;28.30;1.00;;;;;;8342252;28;20209;-64
2022/08/10 10:50:18;;;;;;;3.80;1.80;;;28.50;1.00;;;;;;8338355;28;20181;-66
2022/08/10 10:54:31;;;;;;;3.17;1.70;;;28.80;1.00;;;;;;8339970;28;20234;-64
2022/08/10 10:58:43;;;;;;;2.60;1.92;;;28.90;1.00;;;;;;8335648;28;20256;-63
2022/08/10 11:03:10;;;;;;;4.03;1.60;;;29.30;1.00;;;;;;8337807;28;20184;-64
2022/08/10 11:07:22;;;;;;;3.33;1.70;;;29.30;1.00;;;;;;8350238;28;20182;-64
2022/08/10 11:11:30;;;;;;;5.00;1.70;;;29.00;1.00;;;;;;8340540;28;20218;-64
2022/08/10 11:16:02;;;;;;;2.45;1.70;;;28.60;1.00;;;;;;8348180;28;20186;-67
2022/08/10 11:20:25;;;;;;;4.03;2.10;;;28.20;1.00;;;;;;8339090;28;20187;-67
2022/08/10 11:24:40;;;;;;;3.33;1.67;;;27.60;1.00;;;;;;8342617;28;20178;-66
2022/08/10 11:29:07;;;;;;;2.38;1.80;;;27.20;1.00;;;;;;8339553;28;20190;-66
2022/08/10 11:33:17;;;;;;;4.38;1.60;;;27.30;1.00;;;;;;8347002;28;20186;-66
2022/08/10 11:37:28;;;;;;;8.02;2.40;;;27.60;1.00;;;;;;8336092;28;20333;-64
2022/08/10 11:41:47;;;;;;;2.55;1.63;;;27.80;1.00;;;;;;8341610;28;20186;-66
2022/08/10 11:45:54;;;;;;;2.45;1.70;;;28.30;1.00;;;;;;8339054;28;20186;-67
2022/08/10 11:50:02;;;;;;;2.58;1.70;;;29.00;1.00;;;;;;8343798;28;20188;-64
2022/08/10 11:54:09;;;;;;;3.60;1.33;;;29.50;1.00;;;;;;8338320;28;20418;-64
2022/08/10 12:02:44;;;;;;;2.90;1.63;;;30.20;1.00;;;;;;8336320;28;20637;-67
2022/08/10 12:06:46;;;;;;;3.17;1.80;;;29.40;1.00;;;;;;8341322;28;20324;-67
2022/08/10 12:10:49;;;;;;;2.80;1.60;;;28.40;1.00;;;;;;8345731;28;20205;-67
2022/08/10 12:14:54;;;;;;;6.03;1.80;;;27.60;1.00;;;;;;8355589;28;21146;-68
2022/08/10 12:19:07;;;;;;;3.13;1.50;;;27.20;1.00;;;;;;8342446;28;20299;-67
2022/08/10 12:23:23;;;;;;;3.45;1.55;;;27.00;1.00;;;;;;8346954;28;20207;-66
2022/08/10 12:27:41;;;;;;;4.80;1.63;;;27.40;1.00;;;;;;8337640;28;20197;-67
2022/08/10 12:31:58;;;;;;;2.75;1.73;;;27.90;1.00;;;;;;8335993;28;20182;-66
2022/08/10 12:36:22;;;;;;;3.22;1.48;;;28.40;1.00;;;;;;8333417;28;20201;-63
2022/08/10 12:40:27;;;;;;;2.38;1.65;;;28.70;1.00;;;;;;8331393;28;20259;-65
2022/08/10 12:44:58;;;;;;;4.22;1.75;;;28.90;1.00;;;;;;8337587;28;20173;-64
2022/08/10 12:49:31;;;;;;;2.85;1.45;;;29.00;1.00;;;;;;8338813;28;20227;-65
2022/08/10 12:54:00;;;;;;;3.80;1.67;;;29.00;1.00;;;;;;8334481;28;20193;-65
2022/08/10 12:58:03;;;;;;;6.55;1.55;;;29.20;1.00;;;;;;8333748;28;20311;-62
2022/08/10 13:02:05;;;;;;;4.07;1.60;;;29.20;1.00;;;;;;8337548;28;20185;-66
2022/08/10 13:06:09;;;;;;;2.72;1.60;;;29.20;1.00;;;;;;8351064;28;20189;-65
2022/08/10 13:10:13;;;;;;;5.00;1.25;;;28.80;1.00;;;;;;8337789;28;20226;-64
2022/08/10 13:14:21;;;;;;;3.72;1.17;;;28.30;1.00;;;;;;8353474;28;20205;-66
2022/08/10 13:18:29;;;;;;;3.78;1.35;;;28.20;1.00;;;;;;8338007;28;20209;-65
2022/08/10 13:22:33;;;;;;;4.10;1.50;;;28.10;1.00;;;;;;8355133;28;20215;-65
2022/08/10 13:26:41;;;;;;;3.10;1.55;;;28.20;1.00;;;;;;8346135;28;20182;-65
2022/08/10 13:30:45;;;;;;;4.53;1.67;;;28.00;1.00;;;;;;8358256;28;20269;-65
2022/08/10 13:34:48;;;;;;;2.42;1.40;;;27.50;1.00;;;;;;8355745;28;20206;-65
2022/08/10 13:38:53;;;;;;;1.65;1.30;;;27.60;1.00;;;;;;8351304;28;20273;-65
2022/08/10 13:42:58;;;;;;;2.30;1.20;;;28.20;1.00;;;;;;8341144;28;20174;-66
2022/08/10 13:46:59;;;;;;;1.90;1.23;;;28.60;1.00;;;;;;8334646;28;20181;-65
2022/08/10 13:51:02;;;;;;;1.42;1.17;;;28.80;1.00;;;;;;8352136;28;20225;-66
2022/08/10 13:55:12;;;;;;;2.80;1.50;;;28.70;1.00;;;;;;8349193;28;20189;-65
2022/08/10 13:59:15;;;;;;;1.92;1.73;;;28.50;1.00;;;;;;8336705;28;20238;-65
2022/08/10 14:03:17;;;;;;;2.58;1.60;;;28.50;1.00;;;;;;8356188;28;20215;-65
2022/08/10 14:07:19;;;;;;;1.38;1.27;;;28.30;1.00;;;;;;8336017;28;20179;-65
2022/08/10 14:11:21;;;;;;;2.50;1.17;;;28.40;1.00;;;;;;8336324;28;20290;-65
2022/08/10 14:15:29;;;;;;;1.23;1.10;;;28.10;1.00;;;;;;8341814;28;20201;-65
2022/08/10 14:19:35;;;;;;;3.83;1.65;;;28.10;1.00;;;;;;8348401;28;20210;-65
2022/08/10 14:23:41;;;;;;;2.38;1.50;;;28.40;1.00;;;;;;8340219;28;20258;-65
2022/08/10 14:27:45;;;;;;;1.83;1.17;;;28.60;1.00;;;;;;8342719;28;20190;-65
2022/08/10 14:31:47;;;;;;;1.30;1.20;;;28.70;1.00;;;;;;8344108;28;20186;-65
2022/08/10 14:35:49;;;;;;;2.17;1.27;;;28.70;1.00;;;;;;8343477;28;20477;-65
2022/08/10 14:40:13;;;;;;;2.85;1.60;;;28.50;1.00;;;;;;8352063;28;20289;-65
2022/08/10 14:44:16;;;;;;;2.17;1.60;;;28.40;1.00;;;;;;8346083;28;20174;-65
2022/08/10 14:48:23;;;;;;;1.40;1.20;;;28.10;1.00;;;;;;8341704;28;20264;-66
2022/08/10 14:52:29;;;;;;;4.20;1.42;;;28.10;1.00;;;;;;8340702;28;20217;-65
2022/08/10 14:56:33;;;;;;;1.55;1.08;;;28.40;1.00;;;;;;8345656;28;20201;-65
2022/08/10 15:00:39;;;;;;;2.83;1.70;;;28.60;1.00;;;;;;8336097;28;20300;-65
2022/08/10 15:04:43;;;;;;;1.88;1.23;;;28.90;1.00;;;;;;8345628;28;20192;-64
2022/08/10 15:08:45;;;;;;;2.30;1.35;;;29.20;1.00;;;;;;8341577;28;20213;-65
2022/08/10 15:12:47;;;;;;;2.45;1.50;;;29.10;1.00;;;;;;8344039;28;20558;-65
2022/08/10 15:16:51;;;;;;;2.85;1.20;;;28.80;1.00;;;;;;8337384;28;20208;-65
2022/08/10 15:21:03;;;;;;;3.35;1.58;;;28.60;1.00;;;;;;8356874;28;20178;-66
2022/08/10 15:25:06;;;;;;;1.60;1.48;;;28.30;1.00;;;;;;8339765;28;20179;-65
2022/08/10 15:29:10;;;;;;;2.35;1.45;;;28.00;1.00;;;;;;8346062;28;20568;-64
2022/08/10 15:37:40;;;;;;;2.55;1.60;;;27.60;1.00;;;;;;8344934;28;20209;-65
2022/08/10 15:41:49;;;;;;;1.50;1.08;;;27.50;1.00;;;;;;8360117;28;20179;-65
2022/08/10 15:46:02;;;;;;;3.67;2.30;;;27.40;1.00;;;;;;8347287;28;20187;-65
2022/08/10 15:50:18;;;;;;;3.65;1.20;;;27.30;1.00;;;;;;8343339;28;20189;-65
2022/08/10 15:54:24;;;;;;;2.85;1.40;;;27.30;1.00;;;;;;8350794;28;20184;-66
2022/08/10 15:58:35;;;;;;;3.30;1.58;;;27.20;1.00;;;;;;8346325;28;20339;-66
2022/08/10 16:02:54;;;;;;;3.45;1.30;;;27.20;1.00;;;;;;8344543;28;20182;-66
2022/08/10 16:07:03;;;;;;;1.77;1.55;;;27.10;1.00;;;;;;8345102;28;20178;-66
2022/08/10 16:11:12;;;;;;;2.88;1.30;;;27.10;1.00;;;;;;8345844;28;20252;-65
2022/08/10 16:15:18;;;;;;;4.30;1.58;;;27.10;1.00;;;;;;8348028;28;20190;-65
2022/08/10 16:19:22;;;;;;;3.28;1.40;;;27.00;1.00;;;;;;8355653;28;20205;-65
2022/08/10 16:23:28;;;;;;;4.18;1.60;;;26.90;1.00;;;;;;8345360;28;20186;-66
2022/08/10 16:27:31;;;;;;;3.28;1.80;;;26.90;1.00;;;;;;8342020;28;20265;-64
2022/08/10 16:31:35;;;;;;;2.72;1.77;;;26.80;1.00;;;;;;8355031;28;20208;-65
2022/08/10 16:35:38;;;;;;;2.83;1.40;;;26.60;1.00;;;;;;8343392;28;20186;-66
2022/08/10 16:39:43;;;;;;;4.40;1.70;;;26.60;1.00;;;;;;8342925;28;20221;-65
2022/08/10 16:43:46;;;;;;;2.60;1.90;;;26.50;1.00;;;;;;8344454;28;20178;-65
2022/08/10 16:47:58;;;;;;;3.70;2.00;;;26.30;1.00;;;;;;8358878;28;20185;-66
2022/08/10 16:51:59;;;;;;;3.70;1.80;;;26.20;1.00;;;;;;8360055;28;20183;-65
2022/08/10 16:56:04;;;;;;;4.57;1.60;;;26.10;1.00;;;;;;8352140;28;20202;-63
2022/08/10 17:00:08;;;;;;;3.60;1.20;;;26.10;1.00;;;;;;8346260;28;20169;-65
2022/08/10 17:04:15;;;;;;;6.00;1.57;;;26.00;1.00;;;;;;8347044;28;20182;-64
2022/08/10 17:08:18;;;;;;;1.92;1.52;;;26.00;1.00;;;;;;8352623;28;20192;-64
2022/08/10 17:12:26;;;;;;;4.00;1.43;;;26.00;1.00;;;;;;8349309;28;20218;-64
2022/08/10 17:16:43;;;;;;;2.57;1.57;;;25.90;1.00;;;;;;8352946;28;20289;-65
2022/08/10 17:20:44;;;;;;;3.87;1.47;;;25.80;1.00;;;;;;8360530;28;20174;-65
2022/08/10 17:25:16;;;;;;;1.97;1.67;;;25.70;1.00;;;;;;8350066;28;20276;-66
2022/08/10 17:29:22;;;;;;;22.13;18.73;;;25.60;1.00;;;;;;8345736;28;20183;-65
2022/08/10 17:33:29;;;;;;;3.27;2.90;;;25.50;1.00;;;;;;8369340;28;20189;-65
2022/08/10 17:37:45;;;;;;;3.13;1.63;;;25.30;1.00;;;;;;8368651;28;20205;-66
2022/08/10 17:41:50;;;;;;;3.67;1.70;;;25.40;1.00;;;;;;8357998;28;20186;-65
2022/08/10 17:45:53;;;;;;;1.37;1.13;;;25.30;1.00;;;;;;8351657;28;20182;-65
2022/08/10 17:49:56;;;;;;;1.87;1.27;;;25.20;1.00;;;;;;8361651;28;20177;-65
2022/08/10 17:54:00;;;;;;;2.73;1.47;;;25.40;1.00;;;;;;8358371;28;20273;-66
2022/08/10 17:58:03;;;;;;;1.20;0.90;;;25.60;1.00;;;;;;8359955;28;20273;-65
2022/08/10 18:02:34;;;;;;;1.63;1.50;;;25.60;1.00;;;;;;8351383;28;20185;-65
2022/08/10 18:06:36;;;;;;;1.53;1.10;;;25.60;1.00;;;;;;8359164;28;20201;-65
2022/08/10 18:10:38;;;;;;;1.83;1.37;;;25.50;1.00;;;;;;8356617;28;20198;-65
2022/08/10 18:14:43;;;;;;;2.00;1.27;;;25.20;1.00;;;;;;8363001;28;20208;-65
2022/08/10 18:18:49;;;;;;;1.87;1.30;;;24.70;1.00;;;;;;8361592;28;20513;-65
2022/08/10 18:22:52;;;;;;;1.80;1.50;;;24.10;1.00;;;;;;8353012;28;21305;-65
2022/08/10 18:26:53;;;;;;;1.73;1.57;;;23.60;1.00;;;;;;8355603;28;20189;-65
2022/08/10 18:30:55;;;;;;;2.70;1.70;;;23.00;1.00;;;;;;8353285;28;20600;-65
2022/08/10 18:34:59;;;;;;;3.10;1.60;;;22.40;1.00;;;;;;8359488;28;20174;-66
2022/08/10 18:39:02;;;;;;;4.27;1.83;;;21.90;1.00;;;;;;8343796;28;20252;-66
2022/08/10 18:43:07;;;;;;;2.57;1.60;;;21.40;1.00;;;;;;8352270;28;20257;-67
2022/08/10 18:47:14;;;;;;;2.20;1.63;;;21.00;1.00;;;;;;8368824;28;20186;-66
2022/08/10 18:51:23;;;;;;;2.67;1.70;;;20.70;1.00;;;;;;8367676;28;20251;-67
2022/08/10 18:55:32;;;;;;;1.63;1.30;;;20.40;1.00;;;;;;8360279;28;20186;-66
2022/08/10 19:00:02;;;;;;;2.20;1.50;;;20.00;1.00;;;;;;8356593;28;20205;-66
2022/08/10 19:04:26;;;;;;;2.10;1.90;;;19.70;1.00;;;;;;8362711;28;20174;-66
2022/08/10 19:08:46;;;;;;;2.07;1.70;;;19.40;1.00;;;;;;8358260;28;20189;-66
2022/08/10 19:13:01;;;;;;;1.80;1.70;;;19.10;16.10;;;;;;8355103;28;20264;-66
2022/08/10 19:17:21;;;;;;;2.13;1.83;;;18.80;34.70;;;;;;8365513;28;20198;-66
2022/08/10 19:21:39;;;;;;;2.07;1.70;;;18.60;56.30;;;;;;8359599;28;20186;-66
2022/08/10 19:25:56;;;;;;;2.13;1.87;;;18.40;86.00;;;;;;8358544;28;20178;-66
2022/08/10 19:30:15;;;;;;;2.00;1.73;;;18.20;98.60;;;;;;8357398;28;20174;-66
2022/08/10 19:34:28;;;;;;;2.20;2.00;;;18.00;99.90;;;;;;8354177;28;20258;-67
2022/08/10 19:38:58;;;;;;;2.73;1.70;;;17.90;99.90;;;;;;8351174;28;20194;-66
2022/08/10 19:43:25;;;;;;;1.73;1.57;;;17.80;99.90;;;;;;8353991;28;20188;-65
2022/08/10 19:48:11;;;;;;;3.00;1.70;;;17.70;99.90;;;;;;8336629;28;20274;-65
2022/08/10 19:52:31;;;;;;;2.53;1.97;;;17.50;99.90;;;;;;8353841;28;20205;-66
2022/08/10 19:56:55;;;;;;;2.37;1.70;;;17.40;99.90;;;;;;8355058;28;20273;-66
2022/08/10 20:01:05;;;;;;;2.93;2.00;;;17.20;99.90;;;;;;8353041;28;20217;-67
2022/08/10 20:05:25;;;;;;;1.90;1.70;;;17.00;99.90;;;;;;8348446;28;20197;-67
2022/08/10 20:10:04;;;;;;;2.47;1.73;;;16.90;99.90;;;;;;8349098;28;20214;-67
2022/08/10 20:14:31;;;;;;;2.63;2.43;;;16.80;99.90;;;;;;8352696;28;20242;-67
2022/08/10 20:18:52;;;;;;;2.80;2.20;;;16.70;99.90;;;;;;8355286;28;20205;-67
2022/08/10 20:23:35;;;;;;;2.40;2.20;;;16.50;99.90;;;;;;8343506;28;20178;-67
2022/08/10 20:28:20;;;;;;;3.33;1.87;;;16.40;99.90;;;;;;8346654;28;20198;-67
2022/08/10 20:32:27;;;;;;;4.27;2.20;;;16.20;99.90;;;;;;8317857;28;20214;-67
2022/08/10 20:36:39;;;;;;;2.50;2.20;;;16.20;99.90;;;;;;8344741;28;20210;-69
2022/08/10 20:41:15;;;;;;;2.67;1.80;;;16.00;99.90;;;;;;8339429;28;20261;-67
2022/08/10 20:45:23;;;;;;;4.17;2.60;;;16.00;99.90;;;;;;8342776;28;20205;-67
2022/08/10 20:49:40;;;;;;;2.40;2.03;;;15.80;99.90;;;;;;8353136;28;20183;-67
2022/08/10 20:53:50;;;;;;;2.20;2.00;;;15.70;99.90;;;;;;8350164;28;20202;-67
2022/08/10 20:58:29;;;;;;;2.90;2.20;;;15.60;99.90;;;;;;8347362;28;20266;-67
2022/08/10 21:03:21;;;;;;;2.70;2.13;;;15.50;99.90;;;;;;8357471;28;20194;-67
2022/08/10 21:07:36;;;;;;;2.57;2.27;;;15.30;99.90;;;;;;8321687;28;20208;-66
2022/08/10 21:11:43;;;;;;;3.23;2.17;;;15.10;99.90;;;;;;8347480;28;20226;-66
2022/08/10 21:15:50;;;;;;;3.20;2.57;;;14.90;1.00;;;;;;8344690;28;20222;-67
2022/08/10 21:20:13;;;;;;;3.10;2.80;;;14.80;1.00;;;;;;8352533;28;20192;-67
2022/08/10 21:24:23;;;;;;;3.00;2.70;;;14.70;1.00;;;;;;8348959;28;20173;-67
2022/08/10 22:58:37;;;;;;;4.23;3.83;;;12.90;1.00;;;;;;8349601;28;20185;-67
2022/08/10 23:02:37;;;;;;;5.07;4.20;;;12.90;1.00;;;;;;8357739;28;20227;-66
2022/08/10 23:06:39;;;;;;;6.37;3.90;;;12.80;1.00;;;;;;8354984;28;20192;-66
2022/08/10 23:10:43;;;;;;;4.47;3.93;;;12.70;1.00;;;;;;8350007;28;20204;-67
2022/08/10 23:23:17;;;;;;;4.47;3.60;;;12.60;29.40;;;;;;8350716;28;20243;-66
2022/08/10 23:27:21;;;;;;;5.00;4.03;;;12.60;42.00;;;;;;8347276;28;20265;-67